KJXN/JXN METAR and TAF weather

Enter ICAO airport designator
Station Type Date Time Source
KJXN METAR 2019/12/13 02:56 UTC NOAA

KJXN 130256Z AUTO 15014KT 10SM CLR 01/M04 A3012 RMK AO2 SLP214 T00061044 58021


Station Type Date Time Source
KJXN Decoded METAR 2019/12/13 02:56 UTC NOAA

JACKSON COUNTY-REYNOLDS, MI, United States (KJXN) 42-16N 084-28W
Dec 12, 2019 - 09:56 PM EST / 2019.12.13 0256 UTC
Wind: from the SSE (150 degrees) at 16 MPH (14 KT):0
Visibility: 10 mile(s):0
Sky conditions: clear
Temperature: 33.1 F (0.6 C)
Windchill: 23 F (-5 C):1
Dew Point: 24.1 F (-4.4 C)
Relative Humidity: 69%
Pressure (altimeter): 30.12 in. Hg (1019 hPa)
Pressure tendency: 0.06 inches (2.1 hPa) lower than three hours ago
ob: KJXN 130256Z AUTO 15014KT 10SM CLR 01/M04 A3012 RMK AO2 SLP214 T00061044 58021
cycle: 3

Station Type Date Time Source
KJXN TAF 2019/12/12 18:59 UTC NOAA

TAF KJXN 121759Z 1218/1318 16013KT P6SM BKN250
FM122200 18014KT P6SM BKN250 WS020/21040KT
FM130100 18014KT P6SM SCT250 WS020/21045KT
FM130600 20012KT P6SM SCT250 WS020/23040KT
FM130800 20010KT P6SM BKN250 WS020/23035KT
FM131000 19008KT P6SM BKN180

Example: see airport list